Time;durP1;ratioP1;P1;durP2;ratioP2;P2;SDS_P1;SDS_P2;PMS_P1;PMS_P2;Temp;Humidity;BMP_temperature;BMP_pressure;BME280_temperature;BME280_humidity;BME280_pressure;Samples;Min_cycle;Max_cycle;Signal;HPM_P1;HPM_P2
2023/11/06 00:00:59;;;;;;;;;;;7.80;99.90;;;;;;5047110;28;20540;-65
2023/11/06 00:03:24;;;;;;;7.88;1.45;;;7.80;99.90;;;;;;5040061;28;19928;-68
2023/11/06 00:05:50;;;;;;;7.82;1.20;;;7.80;99.90;;;;;;5042023;28;20518;-66
2023/11/06 00:08:16;;;;;;;8.45;1.35;;;7.80;99.90;;;;;;5045880;28;20057;-67
2023/11/06 00:10:42;;;;;;;8.23;1.98;;;7.80;99.90;;;;;;5043575;28;20033;-68
2023/11/06 00:13:08;;;;;;;11.43;1.13;;;7.80;99.90;;;;;;5041163;28;20122;-65
2023/11/06 00:15:33;;;;;;;;;;;7.70;99.90;;;;;;5048412;28;20100;-66
2023/11/06 00:17:59;;;;;;;12.48;1.67;;;7.70;99.90;;;;;;5032627;28;19928;-67
2023/11/06 00:20:25;;;;;;;6.25;1.40;;;7.80;99.90;;;;;;5029185;28;20176;-68
2023/11/06 00:22:50;;;;;;;13.77;1.23;;;7.80;99.90;;;;;;5027689;28;20513;-66
2023/11/06 00:25:16;;;;;;;;;;;7.80;99.90;;;;;;5034467;28;20042;-67
2023/11/06 00:27:42;;;;;;;3.75;0.90;;;7.80;99.90;;;;;;5027888;28;19942;-68
2023/11/06 00:30:08;;;;;;;;;;;7.80;99.90;;;;;;5027158;28;20047;-68
2023/11/06 00:32:34;;;;;;;4.15;0.70;;;7.80;99.90;;;;;;5026009;28;19975;-67
2023/11/06 00:34:59;;;;;;;;;;;7.70;99.90;;;;;;5034305;28;20034;-68
2023/11/06 00:37:25;;;;;;;9.60;0.90;;;7.80;99.90;;;;;;5027960;28;20361;-67
2023/11/06 00:39:51;;;;;;;3.03;0.80;;;7.70;99.90;;;;;;5028438;28;20448;-67
2023/11/06 00:42:17;;;;;;;5.07;0.70;;;7.70;99.90;;;;;;5026939;28;20045;-66
2023/11/06 00:44:43;;;;;;;2.35;0.80;;;7.70;99.90;;;;;;5028458;28;20575;-67
2023/11/06 00:47:08;;;;;;;;;;;7.70;99.90;;;;;;5027708;28;20041;-66
2023/11/06 00:49:34;;;;;;;4.97;0.90;;;7.70;99.90;;;;;;5027563;28;20008;-66
2023/11/06 00:51:59;;;;;;;;;;;7.70;99.90;;;;;;5027630;28;20550;-68
2023/11/06 00:54:25;;;;;;;2.33;0.50;;;7.70;99.90;;;;;;5030981;28;20002;-67
2023/11/06 00:56:50;;;;;;;2.80;0.57;;;7.70;99.90;;;;;;5032622;28;20037;-67
2023/11/06 00:59:16;;;;;;;;;;;7.70;99.90;;;;;;5033665;28;20724;-70
2023/11/06 01:01:45;;;;;;;3.38;0.50;;;7.70;99.90;;;;;;5025790;28;19924;-67
2023/11/06 01:04:11;;;;;;;3.65;0.50;;;7.60;99.90;;;;;;5027324;28;20111;-67
2023/11/06 01:06:36;;;;;;;2.42;0.73;;;7.70;99.90;;;;;;5028048;28;20042;-66
2023/11/06 01:09:02;;;;;;;;;;;7.70;99.90;;;;;;5027361;28;20092;-67
2023/11/06 01:11:28;;;;;;;3.58;0.60;;;7.70;99.90;;;;;;5029304;28;19928;-68
2023/11/06 01:13:53;;;;;;;5.28;0.73;;;7.70;99.90;;;;;;5026885;28;20501;-66
2023/11/06 01:16:19;;;;;;;3.88;0.80;;;7.70;99.90;;;;;;5026626;28;20045;-67
2023/11/06 01:18:45;;;;;;;5.50;1.23;;;7.70;99.90;;;;;;5026947;28;20047;-66
2023/11/06 01:21:11;;;;;;;4.25;0.80;;;7.70;99.90;;;;;;5028300;28;20037;-67
2023/11/06 01:23:38;;;;;;;3.53;0.90;;;7.80;99.90;;;;;;5027193;28;20034;-67
2023/11/06 01:26:04;;;;;;;2.53;1.00;;;7.80;99.90;;;;;;5026987;28;20548;-67
2023/11/06 01:28:30;;;;;;;4.30;1.23;;;7.70;99.90;;;;;;5026225;28;20045;-68
2023/11/06 01:30:55;;;;;;;;;;;7.70;99.90;;;;;;5030665;28;20628;-68
2023/11/06 01:33:21;;;;;;;2.80;0.80;;;7.80;99.90;;;;;;5028879;28;19976;-66
2023/11/06 01:35:46;;;;;;;1.13;0.45;;;7.70;99.90;;;;;;5036916;28;20128;-67
2023/11/06 01:38:12;;;;;;;1.50;0.70;;;7.70;99.90;;;;;;5035678;28;20091;-67
2023/11/06 01:40:38;;;;;;;1.92;0.70;;;7.70;99.90;;;;;;5039361;28;20125;-67
2023/11/06 01:43:05;;;;;;;;;;;7.70;99.90;;;;;;5037295;28;20680;-66
2023/11/06 01:45:35;;;;;;;3.78;0.45;;;7.70;99.90;;;;;;5033696;28;19925;-66
2023/11/06 01:48:05;;;;;;;3.38;0.80;;;7.70;99.90;;;;;;5029871;28;20037;-66
2023/11/06 01:50:33;;;;;;;5.47;0.75;;;7.70;99.90;;;;;;5032259;28;20041;-67
2023/11/06 01:53:03;;;;;;;7.07;0.82;;;7.60;99.90;;;;;;5026693;28;20694;-66
2023/11/06 01:55:29;;;;;;;6.15;1.15;;;7.70;99.90;;;;;;5025062;28;20115;-67
2023/11/06 01:57:55;;;;;;;3.92;1.08;;;7.70;99.90;;;;;;5027042;28;20100;-66
2023/11/06 02:00:23;;;;;;;;;;;7.70;99.90;;;;;;5023936;28;20033;-68
2023/11/06 02:02:49;;;;;;;3.65;0.80;;;7.70;99.90;;;;;;5028414;28;19921;-66
2023/11/06 02:05:17;;;;;;;6.82;1.15;;;7.70;99.90;;;;;;5026400;28;20193;-66
2023/11/06 02:07:43;;;;;;;6.22;1.40;;;7.60;99.90;;;;;;5025642;28;20532;-67
2023/11/06 02:10:09;;;;;;;7.43;0.90;;;7.70;99.90;;;;;;5027960;28;20048;-67
2023/11/06 02:12:34;;;;;;;;;;;7.70;99.90;;;;;;5024255;28;20249;-68
2023/11/06 02:15:00;;;;;;;3.22;0.93;;;7.70;99.90;;;;;;5024784;28;20375;-65
2023/11/06 02:17:26;;;;;;;;;;;7.60;99.90;;;;;;5025910;28;20128;-67
2023/11/06 02:19:52;;;;;;;4.28;0.70;;;7.70;99.90;;;;;;5026614;28;19947;-68
2023/11/06 02:22:19;;;;;;;4.88;0.80;;;7.70;99.90;;;;;;5023067;28;20120;-68
2023/11/06 02:24:45;;;;;;;2.10;0.80;;;7.60;99.90;;;;;;5027423;28;20537;-67
2023/11/06 02:27:11;;;;;;;5.55;1.45;;;7.60;99.90;;;;;;5026279;28;20519;-66
2023/11/06 02:29:37;;;;;;;;;;;7.60;99.90;;;;;;5027654;28;20046;-67
2023/11/06 02:32:03;;;;;;;5.13;0.75;;;7.60;99.90;;;;;;5024340;28;19924;-67
2023/11/06 02:34:29;;;;;;;6.28;1.35;;;7.60;99.90;;;;;;5024208;28;20115;-66
2023/11/06 02:36:55;;;;;;;3.03;0.77;;;7.70;99.90;;;;;;5026095;28;20072;-67
2023/11/06 02:39:20;;;;;;;3.50;1.00;;;7.60;99.90;;;;;;5028351;28;20073;-66
2023/11/06 02:41:47;;;;;;;;;;;7.60;99.90;;;;;;5028425;28;20050;-67
2023/11/06 02:44:13;;;;;;;4.60;1.20;;;7.60;99.90;;;;;;5025833;28;19983;-67
2023/11/06 02:46:39;;;;;;;2.65;1.00;;;7.60;99.90;;;;;;5030447;28;20854;-66
2023/11/06 02:49:04;;;;;;;;;;;7.60;99.90;;;;;;5025239;28;20037;-66
2023/11/06 02:51:31;;;;;;;4.97;1.13;;;7.60;99.90;;;;;;5025595;28;20427;-68
2023/11/06 02:53:56;;;;;;;10.10;1.05;;;7.70;99.90;;;;;;5032467;28;20041;-67
2023/11/06 02:56:23;;;;;;;6.47;1.23;;;7.60;99.90;;;;;;5025800;28;20055;-66
2023/11/06 02:58:49;;;;;;;6.53;1.00;;;7.60;99.90;;;;;;5028049;28;20115;-67
2023/11/06 03:01:14;;;;;;;8.75;1.42;;;7.70;99.90;;;;;;5024639;28;20038;-67
2023/11/06 03:03:40;;;;;;;3.72;0.90;;;7.70;99.90;;;;;;5024501;28;20150;-66
2023/11/06 03:06:06;;;;;;;4.75;1.17;;;7.70;99.90;;;;;;5033114;28;20492;-67
2023/11/06 03:08:32;;;;;;;6.72;1.13;;;7.70;99.90;;;;;;5024286;28;20042;-68
2023/11/06 03:10:58;;;;;;;4.47;1.42;;;7.60;99.90;;;;;;5027497;28;20055;-67
2023/11/06 03:13:24;;;;;;;8.98;0.98;;;7.70;99.90;;;;;;5024887;28;20046;-66
2023/11/06 03:15:50;;;;;;;;;;;7.60;99.90;;;;;;5029751;28;20049;-67
2023/11/06 03:18:16;;;;;;;6.00;0.93;;;7.70;99.90;;;;;;5021253;28;19924;-67
2023/11/06 03:20:41;;;;;;;4.15;0.80;;;7.70;99.90;;;;;;5025052;28;20561;-65
2023/11/06 03:23:07;;;;;;;2.03;0.73;;;7.60;99.90;;;;;;5024923;28;20053;-68
2023/11/06 03:25:33;;;;;;;2.47;0.80;;;7.60;99.90;;;;;;5025884;28;20124;-67
2023/11/06 03:27:58;;;;;;;7.03;0.93;;;7.60;99.90;;;;;;5027114;28;20087;-66
2023/11/06 03:30:24;;;;;;;3.25;0.57;;;7.60;99.90;;;;;;5024443;28;20095;-67
2023/11/06 03:32:51;;;;;;;6.32;0.80;;;7.60;99.90;;;;;;5024581;28;20041;-68
2023/11/06 03:35:17;;;;;;;3.83;0.70;;;7.60;99.90;;;;;;5025288;28;20053;-68
2023/11/06 03:37:44;;;;;;;3.67;0.70;;;7.60;99.90;;;;;;5024391;28;20041;-67
2023/11/06 03:40:09;;;;;;;1.38;0.55;;;7.60;99.90;;;;;;5025531;28;20037;-66
2023/11/06 03:42:35;;;;;;;;;;;7.60;99.90;;;;;;5025160;28;20402;-66
2023/11/06 03:45:01;;;;;;;1.90;0.90;;;7.50;99.90;;;;;;5025594;28;19917;-66
2023/11/06 03:47:27;;;;;;;2.05;0.55;;;7.60;99.90;;;;;;5024887;28;20113;-66
2023/11/06 03:49:52;;;;;;;1.23;0.50;;;7.50;99.90;;;;;;5025297;28;20053;-66
2023/11/06 03:52:19;;;;;;;3.60;0.70;;;7.50;99.90;;;;;;5024676;28;20037;-67
2023/11/06 03:54:45;;;;;;;1.55;0.55;;;7.50;99.90;;;;;;5032994;28;20049;-67
2023/11/06 03:57:11;;;;;;;5.97;0.80;;;7.50;99.90;;;;;;5028172;28;20836;-66
2023/11/06 03:59:36;;;;;;;4.50;1.20;;;7.50;99.90;;;;;;5028883;28;20049;-65
2023/11/06 04:02:02;;;;;;;6.68;1.10;;;7.50;99.90;;;;;;5040457;28;20045;-66
2023/11/06 04:04:28;;;;;;;;;;;7.50;99.90;;;;;;5049722;28;20037;-67
2023/11/06 04:06:53;;;;;;;2.55;1.08;;;7.50;99.90;;;;;;5050236;28;19921;-67
2023/11/06 04:09:19;;;;;;;2.90;0.93;;;7.50;99.90;;;;;;5048448;28;20124;-67
2023/11/06 04:11:45;;;;;;;3.22;0.70;;;7.40;99.90;;;;;;5048142;28;20041;-65
2023/11/06 04:14:10;;;;;;;2.97;1.10;;;7.50;99.90;;;;;;5046931;28;20112;-67
2023/11/06 04:16:36;;;;;;;;;;;7.50;99.90;;;;;;5044817;28;20035;-67
2023/11/06 04:19:02;;;;;;;4.95;0.80;;;7.40;99.90;;;;;;5047159;28;20485;-66
2023/11/06 04:21:28;;;;;;;2.28;0.90;;;7.50;99.90;;;;;;5048507;28;20099;-67
2023/11/06 04:23:54;;;;;;;3.88;0.80;;;7.40;99.90;;;;;;5046801;28;20512;-66
2023/11/06 04:26:20;;;;;;;5.20;0.70;;;7.40;99.90;;;;;;5046589;28;20063;-68
2023/11/06 04:28:46;;;;;;;7.15;0.90;;;7.50;99.90;;;;;;5047524;28;20049;-67
2023/11/06 04:31:12;;;;;;;2.33;0.80;;;7.50;99.90;;;;;;5047142;28;20036;-66
2023/11/06 04:33:37;;;;;;;4.90;0.93;;;7.50;99.90;;;;;;5047438;28;20087;-65
2023/11/06 04:36:04;;;;;;;2.30;0.80;;;7.50;99.90;;;;;;5048664;28;20037;-66
2023/11/06 04:38:29;;;;;;;2.60;0.90;;;7.50;99.90;;;;;;5048534;28;20069;-67
2023/11/06 04:40:56;;;;;;;5.05;0.65;;;7.40;99.90;;;;;;5047829;28;20064;-66
2023/11/06 04:43:22;;;;;;;7.57;1.27;;;7.50;99.90;;;;;;5047401;28;20049;-66
2023/11/06 04:45:48;;;;;;;6.53;1.10;;;7.50;99.90;;;;;;5048513;28;20393;-67
2023/11/06 04:48:13;;;;;;;2.42;0.80;;;7.50;99.90;;;;;;5045299;28;20699;-67
2023/11/06 04:50:39;;;;;;;4.47;1.23;;;7.50;99.90;;;;;;5047239;28;20033;-68
2023/11/06 04:53:05;;;;;;;2.47;0.60;;;7.50;99.90;;;;;;5049619;28;20447;-67
2023/11/06 04:55:31;;;;;;;3.25;0.80;;;7.50;99.90;;;;;;5053058;28;20450;-66
2023/11/06 04:57:56;;;;;;;2.15;0.65;;;7.50;99.90;;;;;;5047246;28;20844;-66
2023/11/06 05:00:22;;;;;;;0.57;0.32;;;7.50;99.90;;;;;;5045061;28;20135;-67
2023/11/06 05:02:48;;;;;;;;;;;7.50;99.90;;;;;;5025767;28;20095;-67
2023/11/06 05:05:14;;;;;;;4.70;0.50;;;7.50;99.90;;;;;;5027319;28;19925;-67
2023/11/06 05:07:41;;;;;;;;;;;7.50;99.90;;;;;;5031071;28;20452;-67
2023/11/06 05:10:08;;;;;;;3.22;0.40;;;7.50;99.90;;;;;;5026682;28;19927;-67
2023/11/06 05:12:36;;;;;;;1.77;0.45;;;7.50;99.90;;;;;;5026490;28;20154;-66
2023/11/06 05:15:03;;;;;;;2.30;0.50;;;7.40;99.90;;;;;;5027578;28;20102;-66
2023/11/06 05:17:29;;;;;;;2.97;0.82;;;7.40;99.90;;;;;;5026982;28;20118;-66
2023/11/06 05:19:55;;;;;;;1.02;0.80;;;7.50;99.90;;;;;;5027032;28;20072;-66
2023/11/06 05:22:22;;;;;;;2.58;0.57;;;7.40;99.90;;;;;;5026066;28;20111;-67
2023/11/06 05:24:48;;;;;;;3.08;0.63;;;7.50;99.90;;;;;;5027072;28;20045;-67
2023/11/06 05:27:14;;;;;;;2.03;0.73;;;7.50;99.90;;;;;;5026874;28;20128;-67
2023/11/06 05:29:40;;;;;;;2.22;0.80;;;7.50;99.90;;;;;;5029866;28;20076;-68
2023/11/06 05:32:06;;;;;;;5.57;0.77;;;7.50;99.90;;;;;;5055287;28;20029;-67
2023/11/06 05:34:32;;;;;;;5.22;1.20;;;7.50;99.90;;;;;;5047938;28;20095;-67
2023/11/06 05:36:58;;;;;;;1.73;1.10;;;7.40;99.90;;;;;;5048456;28;20101;-67
2023/11/06 05:39:24;;;;;;;6.40;1.60;;;7.50;99.90;;;;;;5047392;28;20044;-67
2023/11/06 05:41:50;;;;;;;4.22;1.20;;;7.40;99.90;;;;;;5046836;28;20106;-67
2023/11/06 05:44:16;;;;;;;;;;;7.50;99.90;;;;;;5047904;28;20045;-67
2023/11/06 05:46:43;;;;;;;2.13;0.80;;;7.40;99.90;;;;;;5048895;28;19956;-68
2023/11/06 05:49:12;;;;;;;1.25;0.75;;;7.40;99.90;;;;;;5045719;28;20044;-68
2023/11/06 05:51:39;;;;;;;3.53;1.27;;;7.50;99.90;;;;;;5046590;28;20045;-68
2023/11/06 05:54:05;;;;;;;3.17;0.75;;;7.40;99.90;;;;;;5045957;28;20749;-65
2023/11/06 05:56:31;;;;;;;3.38;1.15;;;7.40;99.90;;;;;;5047224;28;20140;-68
2023/11/06 05:58:57;;;;;;;6.07;0.98;;;7.50;99.90;;;;;;5043233;28;20037;-68
2023/11/06 06:01:23;;;;;;;3.92;1.00;;;7.50;99.90;;;;;;5043508;28;20527;-68
2023/11/06 06:03:48;;;;;;;4.35;1.00;;;7.40;99.90;;;;;;5043725;28;20583;-66
2023/11/06 06:06:16;;;;;;;;;;;7.50;99.90;;;;;;5046231;28;20041;-67
2023/11/06 06:08:42;;;;;;;5.07;1.10;;;7.50;99.90;;;;;;5047143;28;20363;-66
2023/11/06 06:11:08;;;;;;;6.82;1.08;;;7.40;99.90;;;;;;5045993;28;20037;-67
2023/11/06 06:13:34;;;;;;;2.45;1.08;;;7.50;99.90;;;;;;5045767;28;20523;-66
2023/11/06 06:16:01;;;;;;;;;;;7.50;99.90;;;;;;5046584;28;20063;-67
2023/11/06 06:18:27;;;;;;;;;;;7.50;99.90;;;;;;5043454;28;19920;-66
2023/11/06 06:20:52;;;;;;;4.57;1.00;;;7.50;99.90;;;;;;5045681;28;19923;-67
2023/11/06 06:23:18;;;;;;;;;;;7.50;99.90;;;;;;5045453;28;20691;-67
2023/11/06 06:25:43;;;;;;;7.13;1.00;;;7.50;99.90;;;;;;5047658;28;20434;-68
2023/11/06 06:28:09;;;;;;;3.90;0.90;;;7.50;99.90;;;;;;5044894;28;20033;-68
2023/11/06 06:30:35;;;;;;;6.75;1.00;;;7.50;99.90;;;;;;5045258;28;20056;-67
2023/11/06 06:33:00;;;;;;;6.53;1.05;;;7.50;99.90;;;;;;5044546;28;20083;-66
2023/11/06 06:35:26;;;;;;;;;;;7.50;99.90;;;;;;5044697;28;20885;-67
2023/11/06 06:37:51;;;;;;;4.47;0.98;;;7.50;99.90;;;;;;5050622;28;19921;-69
2023/11/06 06:40:17;;;;;;;5.05;1.35;;;7.60;99.90;;;;;;5051505;28;20056;-67
2023/11/06 06:42:43;;;;;;;4.40;1.10;;;7.50;99.90;;;;;;5053624;28;20040;-67
2023/11/06 06:45:09;;;;;;;;;;;7.60;99.90;;;;;;5050329;28;20037;-66
2023/11/06 06:47:34;;;;;;;5.45;0.93;;;7.60;99.90;;;;;;5040908;28;19928;-65
2023/11/06 06:50:00;;;;;;;3.83;0.98;;;7.60;99.90;;;;;;5045786;28;20528;-65
2023/11/06 06:52:25;;;;;;;9.88;0.95;;;7.60;99.90;;;;;;5046259;28;20057;-64
2023/11/06 06:54:51;;;;;;;3.03;0.80;;;7.50;99.90;;;;;;5044924;28;20114;-65
2023/11/06 06:57:17;;;;;;;5.82;1.02;;;7.50;99.90;;;;;;5044228;28;20041;-64
2023/11/06 06:59:42;;;;;;;4.22;1.38;;;7.60;99.90;;;;;;5045883;28;20115;-66
2023/11/06 07:02:08;;;;;;;11.05;1.40;;;7.60;99.90;;;;;;5043787;28;20045;-66
2023/11/06 07:04:33;;;;;;;5.85;1.25;;;7.60;99.90;;;;;;5042249;28;20044;-69
2023/11/06 07:07:00;;;;;;;10.13;1.30;;;7.60;99.90;;;;;;5044140;28;20137;-67
2023/11/06 07:09:31;;;;;;;8.52;1.30;;;7.60;99.90;;;;;;5046252;28;20037;-67
2023/11/06 07:12:00;;;;;;;9.05;1.45;;;7.60;99.90;;;;;;5045616;28;20044;-67
2023/11/06 07:14:28;;;;;;;10.27;1.40;;;7.70;99.90;;;;;;5045755;28;20071;-68
2023/11/06 07:16:57;;;;;;;7.95;1.48;;;7.70;99.90;;;;;;5040673;28;20038;-67
2023/11/06 07:19:24;;;;;;;9.00;1.40;;;7.80;99.90;;;;;;5051318;28;20052;-66
2023/11/06 07:21:50;;;;;;;13.45;1.63;;;7.90;99.90;;;;;;5054118;28;20462;-65
2023/11/06 07:24:15;;;;;;;11.52;1.98;;;8.00;99.90;;;;;;5046904;28;20041;-66
2023/11/06 07:26:41;;;;;;;10.75;1.50;;;8.00;99.90;;;;;;5053206;28;20040;-65
2023/11/06 07:29:07;;;;;;;;;;;8.00;99.90;;;;;;5057311;28;20032;-66
2023/11/06 07:31:32;;;;;;;9.38;1.65;;;8.00;99.90;;;;;;5055601;28;19917;-66
2023/11/06 07:33:58;;;;;;;11.35;1.75;;;8.00;99.90;;;;;;5058690;28;20052;-67
2023/11/06 07:36:23;;;;;;;12.63;1.13;;;8.00;99.90;;;;;;5056910;28;20051;-67
2023/11/06 07:38:49;;;;;;;;;;;8.00;99.90;;;;;;5052385;28;20047;-68
2023/11/06 07:41:14;;;;;;;7.38;1.52;;;8.00;99.90;;;;;;5049801;28;19963;-64
2023/11/06 07:43:40;;;;;;;;;;;7.90;99.90;;;;;;5050858;28;20072;-65
2023/11/06 07:46:06;;;;;;;7.45;1.27;;;8.00;99.90;;;;;;5047226;28;19928;-64
2023/11/06 07:48:31;;;;;;;10.05;1.20;;;8.00;99.90;;;;;;5051439;28;20080;-65
2023/11/06 07:50:57;;;;;;;7.90;1.48;;;8.00;99.90;;;;;;5049709;28;20409;-65
2023/11/06 07:53:23;;;;;;;10.55;1.65;;;7.90;99.90;;;;;;5049512;28;20137;-64
2023/11/06 07:55:49;;;;;;;13.82;2.38;;;7.90;99.90;;;;;;5050375;28;20443;-65
2023/11/06 07:58:14;;;;;;;;;;;8.00;99.90;;;;;;5050388;28;20037;-66
2023/11/06 08:00:41;;;;;;;8.35;2.22;;;8.00;99.90;;;;;;5050052;28;20015;-65
2023/11/06 08:03:06;;;;;;;12.45;1.75;;;8.00;99.90;;;;;;5047352;28;20037;-65
2023/11/06 08:05:32;;;;;;;13.20;2.30;;;8.00;99.90;;;;;;5049626;28;20056;-65
2023/11/06 08:07:58;;;;;;;;;;;8.00;99.90;;;;;;5050143;28;20539;-64
2023/11/06 08:10:27;;;;;;;11.27;3.00;;;8.10;99.90;;;;;;5048860;28;19952;-66
2023/11/06 08:12:53;;;;;;;19.20;2.17;;;8.00;99.90;;;;;;5049720;28;20039;-66
2023/11/06 08:15:19;;;;;;;10.70;2.15;;;8.00;99.90;;;;;;5049696;28;20033;-65
2023/11/06 08:17:45;;;;;;;;;;;8.00;99.90;;;;;;5045047;28;20515;-65
2023/11/06 08:20:11;;;;;;;11.73;2.00;;;8.00;99.90;;;;;;5050439;28;19917;-65
2023/11/06 08:22:37;;;;;;;15.43;2.17;;;8.10;99.90;;;;;;5049516;28;20045;-65
2023/11/06 08:25:04;;;;;;;8.10;2.00;;;8.10;99.90;;;;;;5049703;28;20078;-66
2023/11/06 08:27:29;;;;;;;15.00;2.17;;;8.10;99.90;;;;;;5048918;28;20196;-65
2023/11/06 08:29:55;;;;;;;25.30;3.03;;;8.10;99.90;;;;;;5049945;28;20292;-66
2023/11/06 08:32:22;;;;;;;8.88;1.40;;;8.10;99.90;;;;;;5046471;28;20060;-66
2023/11/06 08:34:48;;;;;;;15.45;2.45;;;8.00;99.90;;;;;;5050018;28;20036;-66
2023/11/06 08:37:14;;;;;;;16.02;2.22;;;8.00;99.90;;;;;;5047720;28;20174;-66
2023/11/06 08:39:43;;;;;;;8.10;1.67;;;8.10;99.90;;;;;;5049417;28;20053;-66
2023/11/06 08:42:10;;;;;;;16.45;2.40;;;8.00;99.90;;;;;;5049625;28;20040;-66
2023/11/06 08:44:36;;;;;;;11.38;1.90;;;8.10;99.90;;;;;;5048429;28;20049;-65
2023/11/06 08:47:03;;;;;;;10.90;1.85;;;8.10;99.90;;;;;;5047581;28;20703;-67
2023/11/06 08:49:28;;;;;;;11.00;2.03;;;8.10;99.90;;;;;;5044358;28;20041;-66
2023/11/06 08:51:54;;;;;;;12.27;2.08;;;8.10;99.90;;;;;;5053199;28;20051;-65
2023/11/06 08:54:20;;;;;;;;;;;8.10;99.90;;;;;;5047570;28;20087;-65
2023/11/06 08:56:46;;;;;;;16.42;2.13;;;8.20;99.90;;;;;;5048430;28;19924;-66
2023/11/06 08:59:12;;;;;;;12.10;2.03;;;8.30;99.90;;;;;;5047390;28;20189;-66
2023/11/06 09:01:38;;;;;;;;;;;8.40;99.90;;;;;;5045998;28;20040;-65
2023/11/06 09:04:04;;;;;;;16.50;3.47;;;8.40;99.90;;;;;;5053652;28;20017;-65
2023/11/06 09:06:32;;;;;;;9.80;2.28;;;8.40;99.90;;;;;;5040358;28;20460;-66
2023/11/06 09:08:58;;;;;;;14.23;2.00;;;8.50;99.90;;;;;;5049861;28;20048;-66
2023/11/06 09:11:24;;;;;;;;;;;8.50;99.90;;;;;;5050251;28;20405;-65
2023/11/06 09:13:50;;;;;;;9.98;1.58;;;8.50;99.90;;;;;;5042944;28;19921;-66
2023/11/06 09:16:17;;;;;;;12.15;1.55;;;8.60;99.90;;;;;;5047118;28;20110;-65
2023/11/06 09:18:43;;;;;;;8.32;1.65;;;8.60;99.90;;;;;;5039888;28;20041;-66
2023/11/06 09:21:13;;;;;;;;;;;8.60;99.90;;;;;;5044412;28;20078;-66
2023/11/06 09:23:41;;;;;;;10.57;1.48;;;8.60;99.90;;;;;;5040387;28;19924;-66
2023/11/06 09:26:09;;;;;;;15.48;2.28;;;8.60;99.90;;;;;;5047110;28;20147;-66
2023/11/06 09:28:34;;;;;;;23.02;2.63;;;8.60;99.90;;;;;;5041520;28;20041;-67
2023/11/06 09:31:00;;;;;;;;;;;8.50;99.90;;;;;;5045711;28;20052;-66
2023/11/06 09:33:25;;;;;;;17.70;2.50;;;8.60;99.90;;;;;;5045955;28;19927;-65
2023/11/06 09:35:51;;;;;;;15.52;2.03;;;8.60;99.90;;;;;;5049818;28;20080;-66
2023/11/06 09:38:18;;;;;;;12.30;1.80;;;8.90;99.90;;;;;;5045084;28;20037;-65
2023/11/06 09:40:45;;;;;;;10.15;2.08;;;9.00;99.90;;;;;;5047129;28;20102;-65
2023/11/06 09:43:11;;;;;;;8.38;1.67;;;9.10;99.90;;;;;;5044055;28;20045;-66
2023/11/06 09:45:37;;;;;;;7.47;2.25;;;9.20;99.90;;;;;;5046019;28;20059;-65
2023/11/06 09:48:05;;;;;;;;;;;9.40;99.90;;;;;;5047110;28;20504;-67
2023/11/06 09:50:31;;;;;;;9.43;2.17;;;9.50;99.90;;;;;;5052487;28;19917;-66
2023/11/06 09:52:57;;;;;;;6.32;1.38;;;9.50;99.90;;;;;;5048429;28;20050;-66
2023/11/06 09:55:23;;;;;;;;;;;9.40;99.90;;;;;;5049983;28;20049;-66
2023/11/06 09:57:50;;;;;;;10.90;1.98;;;9.30;99.90;;;;;;5048698;28;19917;-67
2023/11/06 10:00:16;;;;;;;8.93;2.35;;;9.50;99.90;;;;;;5044715;28;20394;-65
2023/11/06 10:02:43;;;;;;;;;;;9.60;99.90;;;;;;5050403;28;20036;-66
2023/11/06 10:05:16;;;;;;;11.25;2.35;;;9.60;99.90;;;;;;5048511;28;19928;-66
2023/11/06 10:07:45;;;;;;;9.32;1.70;;;9.70;99.90;;;;;;5044941;28;20040;-67
2023/11/06 10:10:16;;;;;;;8.50;1.33;;;9.70;99.90;;;;;;5048108;28;20033;-66
2023/11/06 10:12:42;;;;;;;14.30;1.90;;;9.50;99.90;;;;;;5041579;28;20044;-66
2023/11/06 10:15:11;;;;;;;8.02;1.23;;;9.40;99.90;;;;;;5047426;28;20044;-66
2023/11/06 10:17:38;;;;;;;6.75;1.45;;;9.30;99.90;;;;;;5053027;28;20041;-67
2023/11/06 10:20:14;;;;;;;13.52;2.05;;;9.40;99.90;;;;;;5046492;28;20755;-66
2023/11/06 10:22:55;;;;;;;9.43;1.55;;;9.70;99.90;;;;;;5039007;28;20040;-66
2023/11/06 10:25:30;;;;;;;12.38;2.22;;;9.80;99.90;;;;;;5044970;28;20120;-66
2023/11/06 10:27:56;;;;;;;9.00;1.83;;;9.80;99.90;;;;;;5045207;28;20045;-66
2023/11/06 10:30:23;;;;;;;8.43;1.63;;;9.80;99.90;;;;;;5045282;28;20171;-67
2023/11/06 10:32:49;;;;;;;12.90;1.77;;;9.60;99.90;;;;;;5045801;28;20657;-66
2023/11/06 10:35:15;;;;;;;;;;;9.50;99.90;;;;;;5046087;28;20040;-66
2023/11/06 10:37:50;;;;;;;8.15;1.38;;;9.50;99.90;;;;;;5044992;28;20091;-67
2023/11/06 10:40:19;;;;;;;10.60;1.38;;;9.40;99.90;;;;;;5050862;28;20041;-66
2023/11/06 10:42:48;;;;;;;12.85;2.22;;;9.40;99.90;;;;;;5045259;28;20071;-67
2023/11/06 10:45:14;;;;;;;12.45;1.60;;;9.50;99.90;;;;;;5045298;28;20048;-67
2023/11/06 10:48:10;;;;;;;9.25;1.63;;;9.50;99.90;;;;;;5042064;28;20146;-65
2023/11/06 10:50:37;;;;;;;8.90;1.48;;;9.70;99.90;;;;;;5041155;28;20087;-68
2023/11/06 10:53:06;;;;;;;6.28;2.08;;;9.80;99.90;;;;;;5045211;28;20033;-66
2023/11/06 10:55:36;;;;;;;9.43;1.58;;;9.90;99.90;;;;;;5051418;28;20722;-67
2023/11/06 10:58:03;;;;;;;8.48;1.63;;;10.00;99.90;;;;;;5044311;28;20060;-67
2023/11/06 11:00:31;;;;;;;12.77;1.75;;;10.10;99.90;;;;;;5042635;28;20045;-65
2023/11/06 11:02:58;;;;;;;10.50;1.63;;;10.00;99.90;;;;;;5045539;28;20408;-67
2023/11/06 11:05:24;;;;;;;8.55;1.52;;;10.00;99.90;;;;;;5044748;28;20761;-67
2023/11/06 11:07:53;;;;;;;9.85;1.80;;;10.00;99.90;;;;;;5045379;28;20045;-66
2023/11/06 11:10:20;;;;;;;8.95;1.80;;;10.00;99.90;;;;;;5044948;28;20049;-66
2023/11/06 11:12:51;;;;;;;10.38;2.00;;;10.00;99.90;;;;;;5044929;28;20619;-67
2023/11/06 11:15:27;;;;;;;6.75;1.35;;;9.80;99.90;;;;;;5045252;28;20116;-64
2023/11/06 11:18:04;;;;;;;7.45;1.90;;;9.70;99.90;;;;;;5035416;28;20420;-66
2023/11/06 11:20:48;;;;;;;12.63;2.80;;;9.70;99.90;;;;;;5041150;28;20056;-66
2023/11/06 11:23:14;;;;;;;9.55;1.70;;;9.80;99.90;;;;;;5043457;28;20098;-66
2023/11/06 11:26:09;;;;;;;;;;;9.80;99.90;;;;;;5046237;28;20496;-66
2023/11/06 11:29:10;;;;;;;10.75;1.70;;;9.80;99.90;;;;;;5027451;28;19998;-67
2023/11/06 11:31:47;;;;;;;7.50;1.15;;;9.90;99.90;;;;;;4978008;28;20103;-66
2023/11/06 11:34:27;;;;;;;14.10;2.08;;;10.00;99.90;;;;;;5034056;28;20204;-66
2023/11/06 11:36:55;;;;;;;5.75;1.15;;;10.00;99.90;;;;;;5021380;28;20505;-66
2023/11/06 11:39:22;;;;;;;18.35;1.98;;;10.00;99.90;;;;;;5023310;28;20041;-66
2023/11/06 11:42:00;;;;;;;13.13;2.47;;;10.00;99.90;;;;;;5029096;28;20057;-66
2023/11/06 11:44:26;;;;;;;13.70;1.90;;;10.00;99.90;;;;;;5021022;28;20049;-65
2023/11/06 11:46:53;;;;;;;;;;;10.10;99.90;;;;;;5028621;28;20511;-66
2023/11/06 11:49:40;;;;;;;12.20;2.53;;;10.10;99.90;;;;;;5026727;28;20108;-66
2023/11/06 11:52:08;;;;;;;10.02;2.35;;;10.00;99.90;;;;;;5023330;28;20069;-66
2023/11/06 11:54:37;;;;;;;9.13;1.40;;;10.00;99.90;;;;;;5026931;28;20045;-66
2023/11/06 11:57:04;;;;;;;10.77;2.25;;;10.10;99.90;;;;;;5025843;28;20640;-66
2023/11/06 11:59:50;;;;;;;7.97;2.58;;;10.10;99.90;;;;;;5025217;28;20052;-66
2023/11/06 12:02:26;;;;;;;27.17;4.10;;;10.00;99.90;;;;;;5022926;28;20064;-66
2023/11/06 12:05:10;;;;;;;12.20;1.60;;;10.10;99.90;;;;;;5025666;28;20129;-66
2023/11/06 12:07:43;;;;;;;11.43;1.90;;;10.10;99.90;;;;;;5027358;28;20054;-66
2023/11/06 12:10:09;;;;;;;10.80;1.73;;;10.00;99.90;;;;;;5030725;28;20037;-65
2023/11/06 12:12:35;;;;;;;7.72;1.75;;;10.30;99.90;;;;;;5024984;28;20046;-66
2023/11/06 12:15:02;;;;;;;;;;;10.30;99.90;;;;;;5027585;28;20029;-67
2023/11/06 12:17:33;;;;;;;4.82;1.30;;;10.20;99.90;;;;;;5027592;28;19920;-66
2023/11/06 12:20:00;;;;;;;6.38;1.35;;;10.10;99.90;;;;;;5030378;28;20042;-65
2023/11/06 12:22:33;;;;;;;12.55;1.60;;;10.10;99.90;;;;;;5022985;28;20112;-65
2023/11/06 12:24:59;;;;;;;10.13;1.65;;;10.00;99.90;;;;;;5028686;28;20656;-66
2023/11/06 12:27:32;;;;;;;;;;;10.00;99.90;;;;;;5038840;28;20045;-65
2023/11/06 12:30:08;;;;;;;11.02;1.77;;;9.90;99.90;;;;;;5036684;28;19924;-65
2023/11/06 12:32:35;;;;;;;5.90;1.45;;;9.80;99.90;;;;;;5058394;28;20072;-65
2023/11/06 12:35:14;;;;;;;9.27;1.20;;;9.80;99.90;;;;;;5062423;28;20036;-66
2023/11/06 12:37:58;;;;;;;12.45;1.83;;;9.80;99.90;;;;;;5047345;28;20502;-68
2023/11/06 12:40:28;;;;;;;8.52;1.67;;;9.80;99.90;;;;;;5056361;28;20037;-67
2023/11/06 12:43:00;;;;;;;5.72;1.20;;;9.70;99.90;;;;;;5051656;28;20535;-66
2023/11/06 12:45:32;;;;;;;8.23;1.00;;;9.80;99.90;;;;;;5062472;28;20068;-66
2023/11/06 12:48:46;;;;;;;9.95;1.75;;;9.80;99.90;;;;;;5067846;28;20563;-66
2023/11/06 12:51:14;;;;;;;10.98;1.92;;;9.80;99.90;;;;;;5044126;28;20056;-67
2023/11/06 12:53:46;;;;;;;8.70;1.77;;;9.80;99.90;;;;;;5051420;28;20033;-66
2023/11/06 12:56:12;;;;;;;8.73;1.60;;;9.80;99.90;;;;;;5055531;28;20044;-66
2023/11/06 12:58:38;;;;;;;7.97;1.50;;;9.90;99.90;;;;;;5062125;28;20045;-66
2023/11/06 13:01:20;;;;;;;8.85;1.33;;;9.80;99.90;;;;;;5047448;28;20096;-65
2023/11/06 13:03:48;;;;;;;15.00;1.65;;;9.80;99.90;;;;;;5048293;28;20066;-66
2023/11/06 13:06:17;;;;;;;7.35;1.63;;;9.70;99.90;;;;;;5058183;28;20527;-67
2023/11/06 13:08:43;;;;;;;7.50;1.35;;;9.70;99.90;;;;;;5055390;28;20048;-67